sensor_id;sensor_type;location;lat;lon;timestamp;temperature;humidity
30865;DHT22;17574;49.418;11.038;2023-03-21T00:01:43;9.20;60.40
30865;DHT22;17574;49.418;11.038;2023-03-21T00:04:10;9.20;60.40
30865;DHT22;17574;49.418;11.038;2023-03-21T00:06:37;9.30;60.50
30865;DHT22;17574;49.418;11.038;2023-03-21T00:09:04;9.30;60.50
30865;DHT22;17574;49.418;11.038;2023-03-21T00:11:30;9.30;60.50
30865;DHT22;17574;49.418;11.038;2023-03-21T00:13:57;9.30;60.50
30865;DHT22;17574;49.418;11.038;2023-03-21T00:16:27;9.30;60.50
30865;DHT22;17574;49.418;11.038;2023-03-21T00:19:00;9.30;60.50
30865;DHT22;17574;49.418;11.038;2023-03-21T00:21:28;9.20;60.40
30865;DHT22;17574;49.418;11.038;2023-03-21T00:24:17;9.20;60.40
30865;DHT22;17574;49.418;11.038;2023-03-21T00:26:44;9.30;60.50
30865;DHT22;17574;49.418;11.038;2023-03-21T00:29:11;9.20;60.40
30865;DHT22;17574;49.418;11.038;2023-03-21T00:31:38;9.20;60.40
30865;DHT22;17574;49.418;11.038;2023-03-21T00:34:05;9.20;60.30
30865;DHT22;17574;49.418;11.038;2023-03-21T00:36:31;9.20;60.40
30865;DHT22;17574;49.418;11.038;2023-03-21T00:38:58;9.20;60.40
30865;DHT22;17574;49.418;11.038;2023-03-21T00:41:26;9.20;60.40
30865;DHT22;17574;49.418;11.038;2023-03-21T00:44:08;9.20;60.40
30865;DHT22;17574;49.418;11.038;2023-03-21T00:46:35;9.30;60.40
30865;DHT22;17574;49.418;11.038;2023-03-21T00:49:12;9.10;60.30
30865;DHT22;17574;49.418;11.038;2023-03-21T00:51:39;9.10;60.30
30865;DHT22;17574;49.418;11.038;2023-03-21T00:54:06;9.10;60.30
30865;DHT22;17574;49.418;11.038;2023-03-21T00:56:33;9.10;59.10
30865;DHT22;17574;49.418;11.038;2023-03-21T00:58:59;9.10;57.40
30865;DHT22;17574;49.418;11.038;2023-03-21T01:01:26;9.10;56.60
30865;DHT22;17574;49.418;11.038;2023-03-21T01:03:57;9.00;57.20
30865;DHT22;17574;49.418;11.038;2023-03-21T01:06:30;9.00;56.80
30865;DHT22;17574;49.418;11.038;2023-03-21T01:08:57;9.00;57.20
30865;DHT22;17574;49.418;11.038;2023-03-21T01:11:24;9.00;57.00
30865;DHT22;17574;49.418;11.038;2023-03-21T01:13:51;9.00;56.80
30865;DHT22;17574;49.418;11.038;2023-03-21T01:16:33;9.00;57.00
30865;DHT22;17574;49.418;11.038;2023-03-21T01:19:00;8.90;57.30
30865;DHT22;17574;49.418;11.038;2023-03-21T01:21:30;9.00;57.40
30865;DHT22;17574;49.418;11.038;2023-03-21T01:23:57;8.90;58.60
30865;DHT22;17574;49.418;11.038;2023-03-21T01:26:24;8.90;60.20
30865;DHT22;17574;49.418;11.038;2023-03-21T01:28:51;8.90;60.20
30865;DHT22;17574;49.418;11.038;2023-03-21T01:31:17;8.90;60.10
30865;DHT22;17574;49.418;11.038;2023-03-21T01:33:44;8.80;60.10
30865;DHT22;17574;49.418;11.038;2023-03-21T01:36:13;8.80;60.00
30865;DHT22;17574;49.418;11.038;2023-03-21T01:38:41;8.80;60.10
30865;DHT22;17574;49.418;11.038;2023-03-21T01:41:13;8.90;59.30
30865;DHT22;17574;49.418;11.038;2023-03-21T01:43:45;8.80;60.00
30865;DHT22;17574;49.418;11.038;2023-03-21T01:49:32;8.80;60.10
30865;DHT22;17574;49.418;11.038;2023-03-21T01:52:03;8.80;60.10
30865;DHT22;17574;49.418;11.038;2023-03-21T01:54:39;8.80;60.00
30865;DHT22;17574;49.418;11.038;2023-03-21T01:57:08;8.80;60.10
30865;DHT22;17574;49.418;11.038;2023-03-21T02:02:03;8.80;60.10
30865;DHT22;17574;49.418;11.038;2023-03-21T02:04:33;8.80;61.40
30865;DHT22;17574;49.418;11.038;2023-03-21T02:07:03;8.80;60.10
30865;DHT22;17574;49.418;11.038;2023-03-21T02:09:31;8.80;62.20
30865;DHT22;17574;49.418;11.038;2023-03-21T02:11:59;8.80;63.30
30865;DHT22;17574;49.418;11.038;2023-03-21T02:14:26;8.70;64.40
30865;DHT22;17574;49.418;11.038;2023-03-21T02:19:31;8.90;66.50
30865;DHT22;17574;49.418;11.038;2023-03-21T02:24:53;8.80;67.80
30865;DHT22;17574;49.418;11.038;2023-03-21T02:27:35;8.80;68.80
30865;DHT22;17574;49.418;11.038;2023-03-21T02:32:46;8.80;67.30
30865;DHT22;17574;49.418;11.038;2023-03-21T02:35:40;8.80;67.00
30865;DHT22;17574;49.418;11.038;2023-03-21T02:38:26;8.70;66.30
30865;DHT22;17574;49.418;11.038;2023-03-21T02:43:36;8.60;66.10
30865;DHT22;17574;49.418;11.038;2023-03-21T02:46:07;8.70;66.40
30865;DHT22;17574;49.418;11.038;2023-03-21T02:48:35;8.70;66.80
30865;DHT22;17574;49.418;11.038;2023-03-21T02:51:16;8.70;66.80
30865;DHT22;17574;49.418;11.038;2023-03-21T02:53:44;8.70;67.50
30865;DHT22;17574;49.418;11.038;2023-03-21T02:56:20;8.70;68.80
30865;DHT22;17574;49.418;11.038;2023-03-21T02:58:48;8.60;68.70
30865;DHT22;17574;49.418;11.038;2023-03-21T03:01:16;8.70;68.80
30865;DHT22;17574;49.418;11.038;2023-03-21T03:03:43;8.60;68.70
30865;DHT22;17574;49.418;11.038;2023-03-21T03:06:16;8.70;68.60
30865;DHT22;17574;49.418;11.038;2023-03-21T03:11:35;8.70;69.30
30865;DHT22;17574;49.418;11.038;2023-03-21T03:14:13;8.60;68.70
30865;DHT22;17574;49.418;11.038;2023-03-21T03:22:47;8.60;69.70
30865;DHT22;17574;49.418;11.038;2023-03-21T03:25:19;8.60;68.70
30865;DHT22;17574;49.418;11.038;2023-03-21T03:28:05;8.60;68.70
30865;DHT22;17574;49.418;11.038;2023-03-21T03:30:32;8.70;69.70
30865;DHT22;17574;49.418;11.038;2023-03-21T03:33:12;8.70;68.80
30865;DHT22;17574;49.418;11.038;2023-03-21T03:35:43;8.70;68.80
30865;DHT22;17574;49.418;11.038;2023-03-21T03:38:13;8.70;69.30
30865;DHT22;17574;49.418;11.038;2023-03-21T03:40:41;8.80;69.70
30865;DHT22;17574;49.418;11.038;2023-03-21T03:43:14;8.70;69.80
30865;DHT22;17574;49.418;11.038;2023-03-21T03:45:43;8.70;69.10
30865;DHT22;17574;49.418;11.038;2023-03-21T03:50:41;8.80;68.90
30865;DHT22;17574;49.418;11.038;2023-03-21T03:53:15;8.70;69.80
30865;DHT22;17574;49.418;11.038;2023-03-21T03:55:44;8.70;69.90
30865;DHT22;17574;49.418;11.038;2023-03-21T03:58:11;8.70;70.00
30865;DHT22;17574;49.418;11.038;2023-03-21T04:00:50;8.70;69.30
30865;DHT22;17574;49.418;11.038;2023-03-21T04:03:17;8.70;70.10
30865;DHT22;17574;49.418;11.038;2023-03-21T04:05:44;8.40;69.50
30865;DHT22;17574;49.418;11.038;2023-03-21T04:08:13;8.70;69.80
30865;DHT22;17574;49.418;11.038;2023-03-21T04:10:41;8.70;69.40
30865;DHT22;17574;49.418;11.038;2023-03-21T04:13:08;8.70;69.90
30865;DHT22;17574;49.418;11.038;2023-03-21T04:15:34;8.60;69.80
30865;DHT22;17574;49.418;11.038;2023-03-21T04:18:01;8.60;70.10
30865;DHT22;17574;49.418;11.038;2023-03-21T04:20:28;8.60;70.10
30865;DHT22;17574;49.418;11.038;2023-03-21T04:23:03;8.60;69.00
30865;DHT22;17574;49.418;11.038;2023-03-21T04:25:31;8.50;68.60
30865;DHT22;17574;49.418;11.038;2023-03-21T04:28:00;8.60;68.70
30865;DHT22;17574;49.418;11.038;2023-03-21T04:30:26;8.40;68.50
30865;DHT22;17574;49.418;11.038;2023-03-21T04:32:53;8.40;68.50
30865;DHT22;17574;49.418;11.038;2023-03-21T04:35:22;8.30;68.40
30865;DHT22;17574;49.418;11.038;2023-03-21T04:37:49;8.40;68.60
30865;DHT22;17574;49.418;11.038;2023-03-21T04:40:16;8.20;68.50
30865;DHT22;17574;49.418;11.038;2023-03-21T04:42:46;8.20;69.20
30865;DHT22;17574;49.418;11.038;2023-03-21T04:45:13;8.10;70.40
30865;DHT22;17574;49.418;11.038;2023-03-21T04:47:40;8.00;72.00
30865;DHT22;17574;49.418;11.038;2023-03-21T04:50:08;7.90;73.00
30865;DHT22;17574;49.418;11.038;2023-03-21T04:52:36;7.90;75.50
30865;DHT22;17574;49.418;11.038;2023-03-21T04:55:02;7.90;76.60
30865;DHT22;17574;49.418;11.038;2023-03-21T04:57:29;8.00;76.70
30865;DHT22;17574;49.418;11.038;2023-03-21T04:59:55;7.90;77.10
30865;DHT22;17574;49.418;11.038;2023-03-21T05:02:22;7.90;76.60
30865;DHT22;17574;49.418;11.038;2023-03-21T05:04:49;7.80;78.60
30865;DHT22;17574;49.418;11.038;2023-03-21T05:07:16;7.80;80.40
30865;DHT22;17574;49.418;11.038;2023-03-21T05:09:42;7.80;81.40
30865;DHT22;17574;49.418;11.038;2023-03-21T05:12:09;7.80;81.30
30865;DHT22;17574;49.418;11.038;2023-03-21T05:14:35;7.80;80.90
30865;DHT22;17574;49.418;11.038;2023-03-21T05:17:02;7.80;81.10
30865;DHT22;17574;49.418;11.038;2023-03-21T05:19:31;7.80;81.60
30865;DHT22;17574;49.418;11.038;2023-03-21T05:22:02;7.80;81.90
30865;DHT22;17574;49.418;11.038;2023-03-21T05:24:30;7.80;82.30
30865;DHT22;17574;49.418;11.038;2023-03-21T05:26:57;7.80;82.80
30865;DHT22;17574;49.418;11.038;2023-03-21T05:29:28;7.80;82.70
30865;DHT22;17574;49.418;11.038;2023-03-21T05:31:56;7.80;82.30
30865;DHT22;17574;49.418;11.038;2023-03-21T05:34:22;7.80;82.40
30865;DHT22;17574;49.418;11.038;2023-03-21T05:36:49;7.80;82.50
30865;DHT22;17574;49.418;11.038;2023-03-21T05:39:16;7.90;81.80
30865;DHT22;17574;49.418;11.038;2023-03-21T05:41:43;8.00;81.40
30865;DHT22;17574;49.418;11.038;2023-03-21T05:44:09;8.00;80.80
30865;DHT22;17574;49.418;11.038;2023-03-21T05:46:36;8.10;81.10
30865;DHT22;17574;49.418;11.038;2023-03-21T05:49:03;8.10;80.90
30865;DHT22;17574;49.418;11.038;2023-03-21T05:51:29;8.10;80.90
30865;DHT22;17574;49.418;11.038;2023-03-21T05:53:56;8.20;80.10
30865;DHT22;17574;49.418;11.038;2023-03-21T05:56:23;8.20;79.70
30865;DHT22;17574;49.418;11.038;2023-03-21T05:58:49;8.30;80.10
30865;DHT22;17574;49.418;11.038;2023-03-21T06:01:16;8.30;80.00
30865;DHT22;17574;49.418;11.038;2023-03-21T06:03:42;8.30;78.60
30865;DHT22;17574;49.418;11.038;2023-03-21T06:06:09;8.40;78.60
30865;DHT22;17574;49.418;11.038;2023-03-21T06:08:36;8.40;77.00
30865;DHT22;17574;49.418;11.038;2023-03-21T06:11:02;8.50;77.10
30865;DHT22;17574;49.418;11.038;2023-03-21T06:13:29;8.60;77.10
30865;DHT22;17574;49.418;11.038;2023-03-21T06:15:58;8.60;75.70
30865;DHT22;17574;49.418;11.038;2023-03-21T06:18:24;8.70;74.10
30865;DHT22;17574;49.418;11.038;2023-03-21T06:20:51;8.70;73.00
30865;DHT22;17574;49.418;11.038;2023-03-21T06:23:19;8.80;73.70
30865;DHT22;17574;49.418;11.038;2023-03-21T06:25:46;8.90;72.70
30865;DHT22;17574;49.418;11.038;2023-03-21T06:28:13;9.00;72.10
30865;DHT22;17574;49.418;11.038;2023-03-21T06:30:40;9.20;70.70
30865;DHT22;17574;49.418;11.038;2023-03-21T06:33:07;9.30;69.30
30865;DHT22;17574;49.418;11.038;2023-03-21T06:35:33;9.30;68.60
30865;DHT22;17574;49.418;11.038;2023-03-21T06:38:00;9.40;65.20
30865;DHT22;17574;49.418;11.038;2023-03-21T06:40:27;9.50;61.60
30865;DHT22;17574;49.418;11.038;2023-03-21T06:42:54;9.70;60.80
30865;DHT22;17574;49.418;11.038;2023-03-21T06:45:20;9.70;60.70
30865;DHT22;17574;49.418;11.038;2023-03-21T06:47:47;9.90;55.90
30865;DHT22;17574;49.418;11.038;2023-03-21T06:50:14;10.00;51.00
30865;DHT22;17574;49.418;11.038;2023-03-21T06:52:40;10.10;49.80
30865;DHT22;17574;49.418;11.038;2023-03-21T06:55:07;10.20;48.60
30865;DHT22;17574;49.418;11.038;2023-03-21T06:57:34;10.40;44.70
30865;DHT22;17574;49.418;11.038;2023-03-21T07:00:01;10.60;42.50
30865;DHT22;17574;49.418;11.038;2023-03-21T07:02:28;10.80;39.60
30865;DHT22;17574;49.418;11.038;2023-03-21T07:04:54;10.90;39.70
30865;DHT22;17574;49.418;11.038;2023-03-21T07:07:24;11.10;36.30
30865;DHT22;17574;49.418;11.038;2023-03-21T07:09:51;11.30;32.00
30865;DHT22;17574;49.418;11.038;2023-03-21T07:12:18;11.30;29.20
30865;DHT22;17574;49.418;11.038;2023-03-21T07:14:44;11.50;28.30
30865;DHT22;17574;49.418;11.038;2023-03-21T07:17:11;11.60;25.60
30865;DHT22;17574;49.418;11.038;2023-03-21T07:19:38;11.60;25.50
30865;DHT22;17574;49.418;11.038;2023-03-21T07:22:04;11.70;23.30
30865;DHT22;17574;49.418;11.038;2023-03-21T07:24:31;12.30;21.90
30865;DHT22;17574;49.418;11.038;2023-03-21T07:26:58;13.10;16.90
30865;DHT22;17574;49.418;11.038;2023-03-21T07:29:24;13.80;12.20
30865;DHT22;17574;49.418;11.038;2023-03-21T07:31:51;14.40;4.40
30865;DHT22;17574;49.418;11.038;2023-03-21T07:34:18;15.20;1.00
30865;DHT22;17574;49.418;11.038;2023-03-21T07:36:44;15.70;1.00
30865;DHT22;17574;49.418;11.038;2023-03-21T07:39:11;16.60;1.00
30865;DHT22;17574;49.418;11.038;2023-03-21T07:41:38;17.60;1.00
30865;DHT22;17574;49.418;11.038;2023-03-21T07:44:04;18.30;1.00
30865;DHT22;17574;49.418;11.038;2023-03-21T07:46:32;19.30;1.00
30865;DHT22;17574;49.418;11.038;2023-03-21T07:48:58;20.10;1.00
30865;DHT22;17574;49.418;11.038;2023-03-21T07:51:25;20.00;1.00
30865;DHT22;17574;49.418;11.038;2023-03-21T07:53:52;20.30;1.00
30865;DHT22;17574;49.418;11.038;2023-03-21T07:56:18;19.90;1.00
30865;DHT22;17574;49.418;11.038;2023-03-21T07:58:45;19.70;1.00
30865;DHT22;17574;49.418;11.038;2023-03-21T08:01:11;19.50;1.00
30865;DHT22;17574;49.418;11.038;2023-03-21T08:03:38;19.70;1.00
30865;DHT22;17574;49.418;11.038;2023-03-21T08:06:05;20.80;1.00
30865;DHT22;17574;49.418;11.038;2023-03-21T08:08:31;21.60;1.00
30865;DHT22;17574;49.418;11.038;2023-03-21T08:10:58;22.00;1.00
30865;DHT22;17574;49.418;11.038;2023-03-21T08:13:25;22.50;1.00
30865;DHT22;17574;49.418;11.038;2023-03-21T08:15:53;23.10;1.00
30865;DHT22;17574;49.418;11.038;2023-03-21T08:18:19;22.90;1.00
30865;DHT22;17574;49.418;11.038;2023-03-21T08:20:50;23.00;1.00
30865;DHT22;17574;49.418;11.038;2023-03-21T08:23:17;22.90;1.00
30865;DHT22;17574;49.418;11.038;2023-03-21T08:25:43;23.20;1.00
30865;DHT22;17574;49.418;11.038;2023-03-21T08:28:10;22.90;1.00
30865;DHT22;17574;49.418;11.038;2023-03-21T08:30:37;22.80;1.00
30865;DHT22;17574;49.418;11.038;2023-03-21T08:33:03;23.20;1.00
30865;DHT22;17574;49.418;11.038;2023-03-21T08:35:30;23.60;1.00
30865;DHT22;17574;49.418;11.038;2023-03-21T08:37:57;23.90;1.00
30865;DHT22;17574;49.418;11.038;2023-03-21T08:40:23;24.10;1.00
30865;DHT22;17574;49.418;11.038;2023-03-21T08:42:50;24.40;1.00
30865;DHT22;17574;49.418;11.038;2023-03-21T08:45:16;25.00;1.00
30865;DHT22;17574;49.418;11.038;2023-03-21T08:47:44;25.10;1.00
30865;DHT22;17574;49.418;11.038;2023-03-21T08:50:11;24.80;1.00
30865;DHT22;17574;49.418;11.038;2023-03-21T08:52:39;24.90;1.00
30865;DHT22;17574;49.418;11.038;2023-03-21T08:55:06;25.70;1.00
30865;DHT22;17574;49.418;11.038;2023-03-21T08:57:33;26.80;1.00
30865;DHT22;17574;49.418;11.038;2023-03-21T09:00:00;27.40;1.00
30865;DHT22;17574;49.418;11.038;2023-03-21T09:02:26;27.30;1.00
30865;DHT22;17574;49.418;11.038;2023-03-21T09:04:53;28.20;1.00
30865;DHT22;17574;49.418;11.038;2023-03-21T09:07:20;28.90;1.00
30865;DHT22;17574;49.418;11.038;2023-03-21T09:09:47;29.90;1.00
30865;DHT22;17574;49.418;11.038;2023-03-21T09:12:28;29.70;1.00
30865;DHT22;17574;49.418;11.038;2023-03-21T09:14:54;30.00;1.00
30865;DHT22;17574;49.418;11.038;2023-03-21T09:17:21;30.70;1.00
30865;DHT22;17574;49.418;11.038;2023-03-21T09:19:48;31.10;1.00
30865;DHT22;17574;49.418;11.038;2023-03-21T09:22:16;31.40;1.00
30865;DHT22;17574;49.418;11.038;2023-03-21T09:24:43;31.60;1.00
30865;DHT22;17574;49.418;11.038;2023-03-21T09:27:15;31.40;1.00
30865;DHT22;17574;49.418;11.038;2023-03-21T09:29:43;31.60;1.00
30865;DHT22;17574;49.418;11.038;2023-03-21T09:32:10;31.30;1.00
30865;DHT22;17574;49.418;11.038;2023-03-21T09:34:38;32.00;1.00
30865;DHT22;17574;49.418;11.038;2023-03-21T09:37:07;31.90;1.00
30865;DHT22;17574;49.418;11.038;2023-03-21T09:39:39;32.50;1.00
30865;DHT22;17574;49.418;11.038;2023-03-21T09:42:12;32.90;1.00
30865;DHT22;17574;49.418;11.038;2023-03-21T09:47:19;33.10;1.00
30865;DHT22;17574;49.418;11.038;2023-03-21T09:49:48;32.70;1.00
30865;DHT22;17574;49.418;11.038;2023-03-21T09:52:20;32.40;1.00
30865;DHT22;17574;49.418;11.038;2023-03-21T09:54:47;32.50;1.00
30865;DHT22;17574;49.418;11.038;2023-03-21T09:57:20;32.00;1.00
30865;DHT22;17574;49.418;11.038;2023-03-21T09:59:48;32.50;1.00
30865;DHT22;17574;49.418;11.038;2023-03-21T10:04:58;33.40;1.00
30865;DHT22;17574;49.418;11.038;2023-03-21T10:07:26;33.50;1.00
30865;DHT22;17574;49.418;11.038;2023-03-21T10:09:56;33.50;1.00
30865;DHT22;17574;49.418;11.038;2023-03-21T10:12:24;33.80;1.00
30865;DHT22;17574;49.418;11.038;2023-03-21T10:14:56;34.00;1.00
30865;DHT22;17574;49.418;11.038;2023-03-21T10:17:34;34.50;1.00
30865;DHT22;17574;49.418;11.038;2023-03-21T10:20:09;34.00;1.00
30865;DHT22;17574;49.418;11.038;2023-03-21T10:22:37;34.50;1.00
30865;DHT22;17574;49.418;11.038;2023-03-21T10:25:05;34.20;1.00
30865;DHT22;17574;49.418;11.038;2023-03-21T10:27:32;34.50;1.00
30865;DHT22;17574;49.418;11.038;2023-03-21T10:29:59;34.60;1.00
30865;DHT22;17574;49.418;11.038;2023-03-21T10:32:27;35.20;1.00
30865;DHT22;17574;49.418;11.038;2023-03-21T10:34:54;34.90;1.00
30865;DHT22;17574;49.418;11.038;2023-03-21T10:37:22;34.70;1.00
30865;DHT22;17574;49.418;11.038;2023-03-21T10:39:49;35.30;1.00
30865;DHT22;17574;49.418;11.038;2023-03-21T10:42:18;34.90;1.00
30865;DHT22;17574;49.418;11.038;2023-03-21T10:44:47;34.80;1.00
30865;DHT22;17574;49.418;11.038;2023-03-21T10:47:22;34.50;1.00
30865;DHT22;17574;49.418;11.038;2023-03-21T10:49:50;33.30;1.00
30865;DHT22;17574;49.418;11.038;2023-03-21T10:52:36;34.00;1.00
30865;DHT22;17574;49.418;11.038;2023-03-21T10:57:33;33.80;1.00
30865;DHT22;17574;49.418;11.038;2023-03-21T11:00:02;34.60;1.00
30865;DHT22;17574;49.418;11.038;2023-03-21T11:02:42;34.60;1.00
30865;DHT22;17574;49.418;11.038;2023-03-21T11:05:18;34.00;1.00
30865;DHT22;17574;49.418;11.038;2023-03-21T11:07:46;34.20;1.00
30865;DHT22;17574;49.418;11.038;2023-03-21T11:10:14;33.50;1.00
30865;DHT22;17574;49.418;11.038;2023-03-21T11:12:54;33.60;1.00
30865;DHT22;17574;49.418;11.038;2023-03-21T11:15:27;34.50;1.00
30865;DHT22;17574;49.418;11.038;2023-03-21T11:17:54;34.50;1.00
30865;DHT22;17574;49.418;11.038;2023-03-21T11:20:21;34.20;1.00
30865;DHT22;17574;49.418;11.038;2023-03-21T11:22:47;34.30;1.00
30865;DHT22;17574;49.418;11.038;2023-03-21T11:25:36;34.70;1.00
30865;DHT22;17574;49.418;11.038;2023-03-21T11:28:11;34.50;1.00
30865;DHT22;17574;49.418;11.038;2023-03-21T11:30:47;34.20;1.00
30865;DHT22;17574;49.418;11.038;2023-03-21T11:33:14;33.80;1.00
30865;DHT22;17574;49.418;11.038;2023-03-21T11:35:42;33.80;1.00
30865;DHT22;17574;49.418;11.038;2023-03-21T11:38:22;33.60;1.00
30865;DHT22;17574;49.418;11.038;2023-03-21T11:40:55;32.70;1.00
30865;DHT22;17574;49.418;11.038;2023-03-21T11:43:27;32.10;1.00
30865;DHT22;17574;49.418;11.038;2023-03-21T11:46:05;31.90;1.00
30865;DHT22;17574;49.418;11.038;2023-03-21T11:48:32;32.00;1.00
30865;DHT22;17574;49.418;11.038;2023-03-21T11:51:09;31.50;1.00
30865;DHT22;17574;49.418;11.038;2023-03-21T11:53:48;31.30;1.00
30865;DHT22;17574;49.418;11.038;2023-03-21T11:59:01;30.70;1.00
30865;DHT22;17574;49.418;11.038;2023-03-21T12:04:06;30.30;1.00
30865;DHT22;17574;49.418;11.038;2023-03-21T12:06:45;30.40;1.00
30865;DHT22;17574;49.418;11.038;2023-03-21T12:09:59;30.40;1.00
30865;DHT22;17574;49.418;11.038;2023-03-21T12:12:05;30.30;1.00
30865;DHT22;17574;49.418;11.038;2023-03-21T12:19:52;31.20;1.00
30865;DHT22;17574;49.418;11.038;2023-03-21T12:25:14;30.50;1.00
30865;DHT22;17574;49.418;11.038;2023-03-21T12:27:53;30.20;1.00
30865;DHT22;17574;49.418;11.038;2023-03-21T12:38:33;30.70;1.00
30865;DHT22;17574;49.418;11.038;2023-03-21T12:48:51;31.00;1.00
30865;DHT22;17574;49.418;11.038;2023-03-21T12:51:20;31.50;1.00
30865;DHT22;17574;49.418;11.038;2023-03-21T13:02:00;29.40;1.00
30865;DHT22;17574;49.418;11.038;2023-03-21T13:04:32;29.60;1.00
30865;DHT22;17574;49.418;11.038;2023-03-21T13:07:00;29.40;1.00
30865;DHT22;17574;49.418;11.038;2023-03-21T13:12:13;28.80;1.00
30865;DHT22;17574;49.418;11.038;2023-03-21T13:14:50;28.00;1.00
30865;DHT22;17574;49.418;11.038;2023-03-21T13:17:21;27.80;1.00
30865;DHT22;17574;49.418;11.038;2023-03-21T13:19:57;27.90;1.00
30865;DHT22;17574;49.418;11.038;2023-03-21T13:22:27;28.10;1.00
30865;DHT22;17574;49.418;11.038;2023-03-21T13:27:40;28.40;1.00
30865;DHT22;17574;49.418;11.038;2023-03-21T13:32:41;27.80;1.00
30865;DHT22;17574;49.418;11.038;2023-03-21T13:37:37;27.30;1.00
30865;DHT22;17574;49.418;11.038;2023-03-21T13:40:06;27.70;1.00
30865;DHT22;17574;49.418;11.038;2023-03-21T13:42:41;26.60;1.00
30865;DHT22;17574;49.418;11.038;2023-03-21T13:45:09;26.20;1.00
30865;DHT22;17574;49.418;11.038;2023-03-21T13:47:41;26.30;1.00
30865;DHT22;17574;49.418;11.038;2023-03-21T13:55:29;26.30;1.00
30865;DHT22;17574;49.418;11.038;2023-03-21T13:57:56;26.30;1.00
30865;DHT22;17574;49.418;11.038;2023-03-21T14:00:27;26.10;1.00
30865;DHT22;17574;49.418;11.038;2023-03-21T14:05:28;25.80;1.00
30865;DHT22;17574;49.418;11.038;2023-03-21T14:07:57;26.00;1.00
30865;DHT22;17574;49.418;11.038;2023-03-21T14:10:40;25.60;1.00
30865;DHT22;17574;49.418;11.038;2023-03-21T14:13:08;25.70;1.00
30865;DHT22;17574;49.418;11.038;2023-03-21T14:15:38;25.50;1.00
30865;DHT22;17574;49.418;11.038;2023-03-21T14:18:21;25.10;1.00
30865;DHT22;17574;49.418;11.038;2023-03-21T14:21:45;24.90;1.00
30865;DHT22;17574;49.418;11.038;2023-03-21T14:24:05;25.00;1.00
30865;DHT22;17574;49.418;11.038;2023-03-21T14:26:33;24.40;1.00
30865;DHT22;17574;49.418;11.038;2023-03-21T14:29:01;24.30;1.00
30865;DHT22;17574;49.418;11.038;2023-03-21T14:31:31;24.10;1.00
30865;DHT22;17574;49.418;11.038;2023-03-21T14:33:58;23.70;1.00
30865;DHT22;17574;49.418;11.038;2023-03-21T14:36:26;23.50;1.00
30865;DHT22;17574;49.418;11.038;2023-03-21T14:38:55;23.30;1.00
30865;DHT22;17574;49.418;11.038;2023-03-21T14:41:23;23.00;1.00
30865;DHT22;17574;49.418;11.038;2023-03-21T14:46:59;22.80;1.00
30865;DHT22;17574;49.418;11.038;2023-03-21T14:49:27;22.60;1.00
30865;DHT22;17574;49.418;11.038;2023-03-21T14:51:58;22.40;1.00
30865;DHT22;17574;49.418;11.038;2023-03-21T14:54:26;22.50;1.00
30865;DHT22;17574;49.418;11.038;2023-03-21T14:57:00;22.40;1.00
30865;DHT22;17574;49.418;11.038;2023-03-21T14:59:29;22.40;1.00
30865;DHT22;17574;49.418;11.038;2023-03-21T15:01:58;22.40;1.00
30865;DHT22;17574;49.418;11.038;2023-03-21T15:04:25;22.30;1.00
30865;DHT22;17574;49.418;11.038;2023-03-21T15:06:53;22.20;1.00
30865;DHT22;17574;49.418;11.038;2023-03-21T15:09:21;21.90;1.00
30865;DHT22;17574;49.418;11.038;2023-03-21T15:11:50;21.80;1.00
30865;DHT22;17574;49.418;11.038;2023-03-21T15:14:18;21.70;1.00
30865;DHT22;17574;49.418;11.038;2023-03-21T15:16:46;21.80;1.00
30865;DHT22;17574;49.418;11.038;2023-03-21T15:19:14;21.60;1.00
30865;DHT22;17574;49.418;11.038;2023-03-21T15:21:46;21.60;1.00
30865;DHT22;17574;49.418;11.038;2023-03-21T15:24:19;21.50;1.00
30865;DHT22;17574;49.418;11.038;2023-03-21T15:26:47;21.50;1.00
30865;DHT22;17574;49.418;11.038;2023-03-21T15:29:14;21.60;1.00
30865;DHT22;17574;49.418;11.038;2023-03-21T15:31:42;21.50;1.00
30865;DHT22;17574;49.418;11.038;2023-03-21T15:34:19;21.30;1.00
30865;DHT22;17574;49.418;11.038;2023-03-21T15:36:47;21.20;1.00
30865;DHT22;17574;49.418;11.038;2023-03-21T15:39:14;21.10;1.00
30865;DHT22;17574;49.418;11.038;2023-03-21T15:41:54;21.10;1.00
30865;DHT22;17574;49.418;11.038;2023-03-21T15:44:21;20.70;1.00
30865;DHT22;17574;49.418;11.038;2023-03-21T15:46:49;20.50;1.00
30865;DHT22;17574;49.418;11.038;2023-03-21T15:49:23;20.40;1.00
30865;DHT22;17574;49.418;11.038;2023-03-21T15:51:58;20.20;1.00
30865;DHT22;17574;49.418;11.038;2023-03-21T15:54:30;20.10;1.00
30865;DHT22;17574;49.418;11.038;2023-03-21T15:56:58;19.90;1.00
30865;DHT22;17574;49.418;11.038;2023-03-21T15:59:33;19.90;1.00
30865;DHT22;17574;49.418;11.038;2023-03-21T16:02:01;19.80;1.00
30865;DHT22;17574;49.418;11.038;2023-03-21T16:04:28;19.70;1.00
30865;DHT22;17574;49.418;11.038;2023-03-21T16:07:00;19.80;1.00
30865;DHT22;17574;49.418;11.038;2023-03-21T16:09:36;19.60;1.00
30865;DHT22;17574;49.418;11.038;2023-03-21T16:12:07;19.60;1.00
30865;DHT22;17574;49.418;11.038;2023-03-21T16:14:35;19.30;1.00
30865;DHT22;17574;49.418;11.038;2023-03-21T16:17:01;19.20;1.00
30865;DHT22;17574;49.418;11.038;2023-03-21T16:19:38;19.10;1.00
30865;DHT22;17574;49.418;11.038;2023-03-21T16:22:08;19.00;1.00
30865;DHT22;17574;49.418;11.038;2023-03-21T16:24:34;18.80;1.00
30865;DHT22;17574;49.418;11.038;2023-03-21T16:27:01;18.60;1.00
30865;DHT22;17574;49.418;11.038;2023-03-21T16:29:27;18.50;1.00
30865;DHT22;17574;49.418;11.038;2023-03-21T16:31:54;18.40;1.00
30865;DHT22;17574;49.418;11.038;2023-03-21T16:34:21;18.50;1.00
30865;DHT22;17574;49.418;11.038;2023-03-21T16:36:47;18.20;1.00
30865;DHT22;17574;49.418;11.038;2023-03-21T16:39:16;18.20;1.00
30865;DHT22;17574;49.418;11.038;2023-03-21T16:41:43;18.10;1.00
30865;DHT22;17574;49.418;11.038;2023-03-21T16:44:09;18.10;1.00
30865;DHT22;17574;49.418;11.038;2023-03-21T16:46:36;18.00;1.00
30865;DHT22;17574;49.418;11.038;2023-03-21T16:49:03;17.90;1.00
30865;DHT22;17574;49.418;11.038;2023-03-21T16:51:33;17.70;1.00
30865;DHT22;17574;49.418;11.038;2023-03-21T16:54:01;17.60;1.00
30865;DHT22;17574;49.418;11.038;2023-03-21T16:56:38;17.50;1.00
30865;DHT22;17574;49.418;11.038;2023-03-21T16:59:05;17.40;1.00
30865;DHT22;17574;49.418;11.038;2023-03-21T17:01:33;17.40;1.00
30865;DHT22;17574;49.418;11.038;2023-03-21T17:04:03;17.30;1.00
30865;DHT22;17574;49.418;11.038;2023-03-21T17:06:30;17.10;1.00
30865;DHT22;17574;49.418;11.038;2023-03-21T17:08:57;17.00;1.00
30865;DHT22;17574;49.418;11.038;2023-03-21T17:11:24;16.90;1.00
30865;DHT22;17574;49.418;11.038;2023-03-21T17:13:52;16.80;1.00
30865;DHT22;17574;49.418;11.038;2023-03-21T17:16:20;16.70;1.00
30865;DHT22;17574;49.418;11.038;2023-03-21T17:18:49;16.70;1.00